createdAt,value
2018-08-22T00:00:01.702Z,12.74
2018-08-22T00:02:37.463Z,12.58
2018-08-22T00:05:13.416Z,12.58
2018-08-22T00:07:49.207Z,12.57
2018-08-22T00:10:24.937Z,12.76
2018-08-22T00:13:00.603Z,12.97
2018-08-22T00:15:36.456Z,13.11
2018-08-22T00:18:12.270Z,13.15
2018-08-22T00:20:47.988Z,13.29
2018-08-22T00:23:23.853Z,13.12
2018-08-22T00:26:00.100Z,12.68
2018-08-22T00:28:35.848Z,12.61
2018-08-22T00:31:11.552Z,12.43
2018-08-22T00:33:47.328Z,11.97
2018-08-22T00:36:23.453Z,12.11
2018-08-22T00:38:59.362Z,12.28
2018-08-22T00:41:35.294Z,12.36
2018-08-22T00:44:11.322Z,12.37
2018-08-22T00:46:46.923Z,12.52
2018-08-22T00:49:22.824Z,12.77
2018-08-22T00:51:58.562Z,13.07
2018-08-22T00:54:34.392Z,13.23
2018-08-22T00:57:09.988Z,13.13
2018-08-22T00:59:45.658Z,12.97
2018-08-22T01:02:21.490Z,13.19
2018-08-22T01:04:57.518Z,13.42
2018-08-22T01:07:33.241Z,13.13
2018-08-22T01:10:09.869Z,12.49
2018-08-22T01:12:45.544Z,12.10
2018-08-22T01:15:21.282Z,12.10
2018-08-22T01:17:57.150Z,12.44
2018-08-22T01:20:32.798Z,12.51
2018-08-22T01:23:09.362Z,12.75
2018-08-22T01:25:45.062Z,12.70
2018-08-22T01:28:20.819Z,12.65
2018-08-22T01:30:56.605Z,12.54
2018-08-22T01:33:32.401Z,12.58
2018-08-22T01:36:08.293Z,12.81
2018-08-22T01:38:44.204Z,12.63
2018-08-22T01:41:20.317Z,12.35
2018-08-22T01:43:56.073Z,11.95
2018-08-22T01:46:31.940Z,11.96
2018-08-22T01:49:07.801Z,11.81
2018-08-22T01:51:43.664Z,11.81
2018-08-22T01:54:19.376Z,12.18
2018-08-22T01:56:55.238Z,12.17
2018-08-22T01:59:30.969Z,11.94
2018-08-22T02:02:06.795Z,11.77
2018-08-22T02:04:45.328Z,11.93
2018-08-22T02:07:21.045Z,12.35
2018-08-22T02:09:59.254Z,12.48
2018-08-22T02:12:34.992Z,12.17
2018-08-22T02:15:10.595Z,12.16
2018-08-22T02:17:46.391Z,12.50
2018-08-22T02:20:22.017Z,12.62
2018-08-22T02:22:57.981Z,12.71
2018-08-22T02:25:33.829Z,12.95
2018-08-22T02:28:09.472Z,12.37
2018-08-22T02:30:45.211Z,12.28
2018-08-22T02:33:21.028Z,12.53
2018-08-22T02:35:56.802Z,12.51
2018-08-22T02:38:32.497Z,12.07
2018-08-22T02:41:08.672Z,11.66
2018-08-22T02:43:44.450Z,11.31
2018-08-22T02:46:20.033Z,11.38
2018-08-22T02:48:56.882Z,11.75
2018-08-22T02:51:32.701Z,11.70
2018-08-22T02:54:08.579Z,11.57
2018-08-22T02:56:44.482Z,11.19
2018-08-22T02:59:20.325Z,11.19
2018-08-22T03:01:56.047Z,11.42
2018-08-22T03:04:31.980Z,11.45
2018-08-22T03:07:07.856Z,11.81
2018-08-22T03:09:44.646Z,11.83
2018-08-22T03:12:20.714Z,12.19
2018-08-22T03:14:56.454Z,12.19
2018-08-22T03:17:32.155Z,11.65
2018-08-22T03:20:07.949Z,11.34
2018-08-22T03:22:43.845Z,11.12
2018-08-22T03:25:19.478Z,11.01
2018-08-22T03:27:55.225Z,10.86
2018-08-22T03:30:31.107Z,11.06
2018-08-22T03:33:06.919Z,11.00
2018-08-22T03:35:42.712Z,11.08
2018-08-22T03:38:18.553Z,11.36
2018-08-22T03:40:54.297Z,11.52
2018-08-22T03:43:30.026Z,11.66
2018-08-22T03:46:05.888Z,11.71
2018-08-22T03:48:41.729Z,11.82
2018-08-22T03:51:17.665Z,11.44
2018-08-22T03:53:53.398Z,11.43
2018-08-22T03:56:29.273Z,11.76
2018-08-22T03:59:05.000Z,12.01
2018-08-22T04:01:40.932Z,11.77
2018-08-22T04:04:16.661Z,11.93
2018-08-22T04:06:52.375Z,12.01
2018-08-22T04:09:28.209Z,12.17
2018-08-22T04:12:04.180Z,12.49
2018-08-22T04:14:40.138Z,12.42
2018-08-22T04:17:16.047Z,12.62
2018-08-22T04:19:51.869Z,12.72
2018-08-22T04:22:27.789Z,12.34
2018-08-22T04:25:03.607Z,12.02
2018-08-22T04:27:39.427Z,12.11
2018-08-22T04:30:15.317Z,12.07
2018-08-22T04:32:51.061Z,12.03
2018-08-22T04:35:26.716Z,12.00
2018-08-22T04:38:02.687Z,12.22
2018-08-22T04:40:41.816Z,12.47
2018-08-22T04:43:17.509Z,12.80
2018-08-22T04:45:53.111Z,12.99
2018-08-22T04:48:28.945Z,13.22
2018-08-22T04:51:09.111Z,13.65
2018-08-22T04:53:44.891Z,14.02
2018-08-22T04:56:20.809Z,14.26
2018-08-22T04:58:56.581Z,14.49
2018-08-22T05:01:32.333Z,14.71
2018-08-22T05:04:08.197Z,14.89
2018-08-22T05:06:44.014Z,15.45
2018-08-22T05:09:19.936Z,15.65
2018-08-22T05:11:56.310Z,15.94
2018-08-22T05:14:32.037Z,15.93
2018-08-22T05:17:08.778Z,15.94
2018-08-22T05:19:44.578Z,15.83
2018-08-22T05:22:20.292Z,15.69
2018-08-22T05:24:56.200Z,15.95
2018-08-22T05:27:32.017Z,16.33
2018-08-22T05:30:07.849Z,16.42
2018-08-22T05:32:43.625Z,16.29
2018-08-22T05:35:19.497Z,16.54
2018-08-22T05:37:55.323Z,16.82
2018-08-22T05:40:31.096Z,16.98
2018-08-22T05:43:06.921Z,17.21
2018-08-22T05:45:42.701Z,17.67
2018-08-22T05:48:18.421Z,17.85
2018-08-22T05:50:54.317Z,18.32
2018-08-22T05:53:30.186Z,18.52
2018-08-22T05:56:01.037Z,18.58
2018-08-22T05:58:31.922Z,18.54
2018-08-22T06:01:02.731Z,18.69
2018-08-22T06:03:33.509Z,19.19
2018-08-22T06:06:04.307Z,19.51
2018-08-22T06:08:35.088Z,19.70
2018-08-22T06:11:05.949Z,19.89
2018-08-22T06:13:36.826Z,19.89
2018-08-22T06:16:07.634Z,20.00
2018-08-22T06:18:38.414Z,20.37
2018-08-22T06:21:09.289Z,20.29
2018-08-22T06:23:40.103Z,20.18
2018-08-22T06:26:11.028Z,20.43
2018-08-22T06:28:41.832Z,20.67
2018-08-22T06:31:12.657Z,20.80
2018-08-22T06:33:43.440Z,20.79
2018-08-22T06:36:14.276Z,20.87
2018-08-22T06:38:45.256Z,21.21
2018-08-22T06:41:16.431Z,21.26
2018-08-22T06:43:47.217Z,21.36
2018-08-22T06:46:18.247Z,21.77
2018-08-22T06:48:49.010Z,22.07
2018-08-22T06:51:19.816Z,22.10
2018-08-22T06:53:50.576Z,22.18
2018-08-22T06:56:21.421Z,22.36
2018-08-22T06:58:52.057Z,22.13
2018-08-22T07:01:22.928Z,22.09
2018-08-22T07:03:54.312Z,22.43
2018-08-22T07:06:25.124Z,22.51
2018-08-22T07:08:55.912Z,22.63
2018-08-22T07:11:26.757Z,22.87
2018-08-22T07:13:58.633Z,23.17
2018-08-22T07:16:29.484Z,23.28
2018-08-22T07:19:00.252Z,23.19
2018-08-22T07:21:31.085Z,23.25
2018-08-22T07:24:01.865Z,23.35
2018-08-22T07:26:32.734Z,23.63
2018-08-22T07:29:03.496Z,23.79
2018-08-22T07:31:34.402Z,24.13
2018-08-22T07:34:05.218Z,24.27
2018-08-22T07:36:36.011Z,24.33
2018-08-22T07:39:11.170Z,24.40
2018-08-22T07:41:42.051Z,24.78
2018-08-22T07:44:13.044Z,25.27
2018-08-22T07:46:43.900Z,25.76
2018-08-22T07:49:15.136Z,26.19
2018-08-22T07:51:45.964Z,26.22
2018-08-22T07:54:16.766Z,26.07
2018-08-22T07:56:48.037Z,25.49
2018-08-22T07:59:21.465Z,25.63
2018-08-22T08:01:52.388Z,25.82
2018-08-22T08:04:23.446Z,26.23
2018-08-22T08:06:54.285Z,26.30
2018-08-22T08:09:25.337Z,26.18
2018-08-22T08:11:56.403Z,25.79
2018-08-22T08:14:27.268Z,25.64
2018-08-22T08:16:58.434Z,26.09
2018-08-22T08:19:29.333Z,26.47
2018-08-22T08:22:00.148Z,26.99
2018-08-22T08:24:30.982Z,26.90
2018-08-22T08:27:01.830Z,27.35
2018-08-22T08:29:33.813Z,27.01
2018-08-22T08:32:04.609Z,26.89
2018-08-22T08:34:35.385Z,26.78
2018-08-22T08:37:06.174Z,26.76
2018-08-22T08:39:36.948Z,26.47
2018-08-22T08:42:07.988Z,26.69
2018-08-22T08:44:38.754Z,27.00
2018-08-22T08:47:09.538Z,27.86
2018-08-22T08:49:40.322Z,28.26
2018-08-22T08:52:11.340Z,28.02
2018-08-22T08:54:42.292Z,28.13
2018-08-22T08:57:13.186Z,28.52
2018-08-22T08:59:44.136Z,28.21
2018-08-22T09:02:14.962Z,28.12
2018-08-22T09:04:45.723Z,27.80
2018-08-22T09:07:16.563Z,28.33
2018-08-22T09:09:47.337Z,28.54
2018-08-22T09:12:18.260Z,29.24
2018-08-22T09:17:26.249Z,29.75
2018-08-22T09:19:57.136Z,29.11
2018-08-22T09:22:27.920Z,29.66
2018-08-22T09:24:58.700Z,29.93
2018-08-22T09:27:29.517Z,29.22
2018-08-22T09:30:00.302Z,28.69
2018-08-22T09:32:31.310Z,28.79
2018-08-22T09:35:02.852Z,28.19
2018-08-22T09:37:33.655Z,28.50
2018-08-22T09:40:04.524Z,28.97
2018-08-22T09:42:35.621Z,28.64
2018-08-22T09:45:06.387Z,29.00
2018-08-22T09:47:37.167Z,28.89
2018-08-22T09:50:08.067Z,29.34
2018-08-22T09:52:39.049Z,29.51
2018-08-22T09:55:09.810Z,29.98
2018-08-22T09:57:40.707Z,29.26
2018-08-22T10:00:16.631Z,29.21
2018-08-22T10:02:47.574Z,29.19
2018-08-22T10:05:18.350Z,29.46
2018-08-22T10:07:49.141Z,29.55
2018-08-22T10:10:20.566Z,29.75
2018-08-22T10:12:51.640Z,29.84
2018-08-22T10:15:22.706Z,29.70
2018-08-22T10:17:53.645Z,29.29
2018-08-22T10:20:24.432Z,30.09
2018-08-22T10:22:55.237Z,30.65
2018-08-22T10:25:26.792Z,30.54
2018-08-22T10:27:57.603Z,30.00
2018-08-22T10:30:28.385Z,30.29
2018-08-22T10:32:59.205Z,30.63
2018-08-22T10:35:30.166Z,31.11
2018-08-22T10:38:01.382Z,31.13
2018-08-22T10:40:32.154Z,31.59
2018-08-22T10:43:03.008Z,31.18
2018-08-22T10:45:33.764Z,30.47
2018-08-22T10:48:05.547Z,30.40
2018-08-22T10:50:36.797Z,29.81
2018-08-22T10:53:08.612Z,30.09
2018-08-22T10:55:39.369Z,29.72
2018-08-22T10:58:10.216Z,30.14
2018-08-22T11:00:40.976Z,30.50
2018-08-22T11:03:11.938Z,29.87
2018-08-22T11:05:43.551Z,29.65
2018-08-22T11:08:14.494Z,30.22
2018-08-22T11:10:45.276Z,30.40
2018-08-22T11:13:16.102Z,30.44
2018-08-22T11:15:58.896Z,30.89
2018-08-22T11:18:29.957Z,30.82
2018-08-22T11:21:11.521Z,31.18
2018-08-22T11:23:53.054Z,30.42
2018-08-22T11:26:34.531Z,30.88
2018-08-22T11:29:16.144Z,30.58
2018-08-22T11:31:57.708Z,31.64
2018-08-22T11:34:39.302Z,32.21
2018-08-22T11:37:11.236Z,32.10
2018-08-22T11:39:43.794Z,32.34
2018-08-22T11:42:14.585Z,32.52
2018-08-22T11:44:45.443Z,32.50
2018-08-22T11:47:16.222Z,32.53
2018-08-22T11:49:47.057Z,33.08
2018-08-22T11:52:17.882Z,33.04
2018-08-22T11:54:48.691Z,32.71
2018-08-22T11:57:19.512Z,31.69
2018-08-22T11:59:50.335Z,31.95
2018-08-22T12:02:21.138Z,31.74
2018-08-22T12:04:52.442Z,31.76
2018-08-22T12:07:23.399Z,31.31
2018-08-22T12:09:54.193Z,31.64
2018-08-22T12:12:25.230Z,31.37
2018-08-22T12:14:56.709Z,31.54
2018-08-22T13:29:00.926Z,32.76
2018-08-22T13:31:31.587Z,32.69
2018-08-22T13:34:02.276Z,33.17
2018-08-22T13:36:32.972Z,33.31
2018-08-22T13:39:04.589Z,32.42
2018-08-22T13:41:35.597Z,32.60
2018-08-22T13:44:07.211Z,31.76
2018-08-22T13:46:37.884Z,31.72
2018-08-22T13:49:08.626Z,31.40
2018-08-22T13:51:39.356Z,30.78
2018-08-22T13:54:10.101Z,30.55
2018-08-22T13:56:40.795Z,30.99
2018-08-22T13:59:11.586Z,31.17
2018-08-22T14:01:42.271Z,30.76
2018-08-22T14:04:12.997Z,30.10
2018-08-22T14:06:43.706Z,29.66
2018-08-22T14:09:14.387Z,29.56
2018-08-22T14:11:45.055Z,29.01
2018-08-22T14:14:16.077Z,28.89
2018-08-22T14:16:46.894Z,28.67
2018-08-22T14:19:17.705Z,28.45
2018-08-22T14:21:48.415Z,28.68
2018-08-22T14:24:19.134Z,29.81
2018-08-22T14:26:49.781Z,30.20
2018-08-22T14:29:20.716Z,30.07
2018-08-22T14:31:51.385Z,31.18
2018-08-22T14:34:22.332Z,31.89
2018-08-22T14:36:52.997Z,33.14
2018-08-22T14:39:23.920Z,33.38
2018-08-22T14:41:54.780Z,32.17
2018-08-22T14:44:25.540Z,32.83
2018-08-22T14:46:56.202Z,33.12
2018-08-22T14:49:26.943Z,33.53
2018-08-22T14:51:57.612Z,34.57
2018-08-22T14:54:28.314Z,34.84
2018-08-22T14:56:58.940Z,35.66
2018-08-22T14:59:29.751Z,35.27
2018-08-22T15:04:24.737Z,36.97
2018-08-22T15:06:56.387Z,36.52
2018-08-22T15:09:27.060Z,34.64
2018-08-22T15:11:57.801Z,31.89
2018-08-22T15:14:28.446Z,30.21
2018-08-22T15:16:59.261Z,29.35
2018-08-22T15:19:30.281Z,29.15
2018-08-22T15:22:01.022Z,28.76
2018-08-22T15:24:31.797Z,28.53
2018-08-22T15:27:02.600Z,28.53
2018-08-22T15:29:33.328Z,27.82
2018-08-22T15:32:06.047Z,27.78
2018-08-22T15:34:57.034Z,27.66
2018-08-22T15:37:27.816Z,27.37
2018-08-22T15:39:58.523Z,27.24
2018-08-22T15:42:29.266Z,27.41
2018-08-22T15:44:59.976Z,27.16
2018-08-22T15:47:30.870Z,27.11
2018-08-22T15:50:02.834Z,27.16
2018-08-22T15:52:33.604Z,27.02
2018-08-22T15:55:11.559Z,26.93
2018-08-22T15:57:58.733Z,26.85
2018-08-22T16:00:41.741Z,26.81
2018-08-22T16:03:13.256Z,26.67
2018-08-22T16:05:44.853Z,26.52
2018-08-22T16:08:17.859Z,26.44
2018-08-22T16:10:48.573Z,26.36
2018-08-22T16:13:24.876Z,26.35
2018-08-22T16:15:56.749Z,26.27
2018-08-22T16:18:27.668Z,26.24
2018-08-22T16:21:00.632Z,26.30
2018-08-22T16:23:33.532Z,26.30
2018-08-22T16:26:05.181Z,26.22
2018-08-22T16:28:49.866Z,26.18
2018-08-22T16:31:21.313Z,26.11
2018-08-22T16:33:52.019Z,26.02
2018-08-22T16:36:26.792Z,25.96
2018-08-22T16:38:57.848Z,25.88
2018-08-22T16:41:28.496Z,25.77
2018-08-22T16:43:59.217Z,25.68
2018-08-22T16:46:29.896Z,25.62
2018-08-22T16:49:00.620Z,25.49
2018-08-22T16:51:31.313Z,25.41
2018-08-22T16:54:07.014Z,25.26
2018-08-22T16:56:38.347Z,25.22
2018-08-22T16:59:11.767Z,25.00
2018-08-22T17:01:46.615Z,25.06
2018-08-22T17:04:17.633Z,25.08
2018-08-22T17:06:48.514Z,24.97
2018-08-22T17:09:19.288Z,24.96
2018-08-22T17:11:50.012Z,24.68
2018-08-22T17:14:20.761Z,24.34
2018-08-22T17:16:51.507Z,24.06
2018-08-22T17:19:22.356Z,24.03
2018-08-22T17:21:53.033Z,23.93
2018-08-22T17:24:24.309Z,23.65
2018-08-22T17:26:56.296Z,23.37
2018-08-22T17:29:27.095Z,23.04
2018-08-22T17:32:02.900Z,23.02
2018-08-22T17:34:33.711Z,22.82
2018-08-22T17:37:07.852Z,22.69
2018-08-22T17:39:38.652Z,22.85
2018-08-22T17:42:09.331Z,22.70
2018-08-22T17:44:40.058Z,22.59
2018-08-22T17:47:10.810Z,22.49
2018-08-22T17:49:41.726Z,22.34
2018-08-22T17:52:13.333Z,22.19
2018-08-22T17:54:44.360Z,22.07
2018-08-22T17:57:21.154Z,21.93
2018-08-22T17:59:52.751Z,21.35
2018-08-22T18:02:23.924Z,21.45
2018-08-22T18:05:02.386Z,21.64
2018-08-22T18:07:33.077Z,21.54
2018-08-22T18:10:04.991Z,21.30
2018-08-22T18:12:35.726Z,21.01
2018-08-22T18:15:06.515Z,20.74
2018-08-22T18:17:37.181Z,20.90
2018-08-22T18:20:08.273Z,20.80
2018-08-22T18:22:39.672Z,20.90
2018-08-22T18:25:10.521Z,20.86
2018-08-22T18:27:41.247Z,20.71
2018-08-22T18:30:12.730Z,20.32
2018-08-22T18:32:45.735Z,20.28
2018-08-22T18:35:16.424Z,20.28
2018-08-22T18:37:47.109Z,20.28
2018-08-22T18:40:19.849Z,20.34
2018-08-22T18:42:52.727Z,20.28
2018-08-22T18:45:24.082Z,20.32
2018-08-22T18:47:54.818Z,20.49
2018-08-22T18:50:25.561Z,20.65
2018-08-22T18:52:57.591Z,20.77
2018-08-22T18:55:32.771Z,20.61
2018-08-22T18:58:04.882Z,20.52
2018-08-22T19:00:36.702Z,20.43
2018-08-22T19:03:07.829Z,20.33
2018-08-22T19:05:38.867Z,20.07
2018-08-22T19:08:11.368Z,19.66
2018-08-22T19:10:43.533Z,19.47
2018-08-22T19:13:16.273Z,19.82
2018-08-22T19:15:48.845Z,20.12
2018-08-22T19:18:19.668Z,20.09
2018-08-22T19:20:51.012Z,19.97
2018-08-22T19:23:21.814Z,19.47
2018-08-22T19:25:53.567Z,19.32
2018-08-22T19:28:24.436Z,19.07
2018-08-22T19:30:55.189Z,19.00
2018-08-22T19:33:27.941Z,18.94
2018-08-22T19:35:58.980Z,18.61
2018-08-22T19:38:29.933Z,18.30
2018-08-22T19:41:35.893Z,17.96
2018-08-22T19:44:07.256Z,18.18
2018-08-22T19:46:38.010Z,18.35
2018-08-22T19:49:08.764Z,18.48
2018-08-22T19:51:39.646Z,18.45
2018-08-22T19:54:10.435Z,18.57
2018-08-22T19:56:41.186Z,18.29
2018-08-22T19:59:17.008Z,18.45
2018-08-22T20:01:52.700Z,18.53
2018-08-22T20:04:28.369Z,18.48
2018-08-22T20:07:04.123Z,18.62
2018-08-22T20:09:43.934Z,18.46
2018-08-22T20:12:20.020Z,18.55
2018-08-22T20:14:56.607Z,18.45
2018-08-22T20:17:32.480Z,18.35
2018-08-22T20:20:09.746Z,18.61
2018-08-22T20:22:47.746Z,18.50
2018-08-22T20:25:23.705Z,18.68
2018-08-22T20:28:02.920Z,18.51
2018-08-22T20:30:38.689Z,18.43
2018-08-22T20:33:14.522Z,18.04
2018-08-22T20:35:50.141Z,17.79
2018-08-22T20:38:25.938Z,18.06
2018-08-22T20:41:08.860Z,18.14
2018-08-22T20:43:44.593Z,18.31
2018-08-22T20:46:22.233Z,18.49
2018-08-22T20:48:58.036Z,18.51
2018-08-22T20:51:33.985Z,18.28
2018-08-22T20:54:14.060Z,17.75
2018-08-22T20:56:54.630Z,17.30
2018-08-22T20:59:32.470Z,17.52
2018-08-22T21:02:09.011Z,17.67
2018-08-22T21:04:44.957Z,17.76
2018-08-22T21:07:22.875Z,17.60
2018-08-22T21:09:58.554Z,17.43
2018-08-22T21:12:34.202Z,17.16
2018-08-22T21:15:10.045Z,17.05
2018-08-22T21:17:45.959Z,17.23
2018-08-22T21:20:25.560Z,17.25
2018-08-22T21:23:02.085Z,17.48
2018-08-22T21:25:37.713Z,17.58
2018-08-22T21:28:13.935Z,17.60
2018-08-22T21:30:54.838Z,17.41
2018-08-22T21:33:31.151Z,17.36
2018-08-22T21:36:07.015Z,17.49
2018-08-22T21:38:44.889Z,17.22
2018-08-22T21:41:20.575Z,17.00
2018-08-22T21:43:56.327Z,17.11
2018-08-22T21:46:32.025Z,17.28
2018-08-22T21:49:12.673Z,17.13
2018-08-22T21:51:48.214Z,16.71
2018-08-22T21:54:23.766Z,16.78
2018-08-22T21:56:59.424Z,16.74
2018-08-22T21:59:35.201Z,16.39
2018-08-22T22:02:11.883Z,16.16
2018-08-22T22:04:47.890Z,16.01
2018-08-22T22:07:23.603Z,16.29
2018-08-22T22:10:04.344Z,16.26
2018-08-22T22:12:40.641Z,16.56
2018-08-22T22:15:21.162Z,16.76
2018-08-22T22:17:56.900Z,16.73
2018-08-22T22:20:32.609Z,16.72
2018-08-22T22:23:08.305Z,16.86
2018-08-22T22:25:44.178Z,16.79
2018-08-22T22:28:20.729Z,16.46
2018-08-22T22:30:56.422Z,16.46
2018-08-22T22:33:32.201Z,16.79
2018-08-22T22:36:07.812Z,16.78
2018-08-22T22:38:43.603Z,16.83
2018-08-22T22:41:19.220Z,16.77
2018-08-22T22:43:54.942Z,16.95
2018-08-22T22:46:30.642Z,17.03
2018-08-22T22:49:06.673Z,16.95
2018-08-22T22:51:42.434Z,16.49
2018-08-22T22:54:22.665Z,16.28
2018-08-22T22:56:58.395Z,16.29
2018-08-22T22:59:34.122Z,16.48
2018-08-22T23:02:09.806Z,16.15
2018-08-22T23:04:50.503Z,15.83
2018-08-22T23:07:32.172Z,15.50
2018-08-22T23:10:11.549Z,15.74
2018-08-22T23:12:47.570Z,15.80
2018-08-22T23:15:27.564Z,15.88
2018-08-22T23:18:03.220Z,15.62
2018-08-22T23:20:40.455Z,15.74
2018-08-22T23:23:36.429Z,15.73
2018-08-22T23:26:18.929Z,15.76
2018-08-22T23:28:54.709Z,15.67
2018-08-22T23:31:30.225Z,15.82
2018-08-22T23:34:05.987Z,16.12
2018-08-22T23:36:42.036Z,16.20
2018-08-22T23:39:17.753Z,16.29
2018-08-22T23:41:53.338Z,16.41
2018-08-22T23:44:29.042Z,16.53
2018-08-22T23:47:04.648Z,16.62
2018-08-22T23:49:44.338Z,16.64
2018-08-22T23:52:20.161Z,16.68
2018-08-22T23:54:55.768Z,16.30
2018-08-22T23:57:31.479Z,16.13
